Nearby METAR Reports

 

KMLE - Omaha/Millard, Nebraska, USA
Distance from station: NE 1mi, 2km
Updated: Sat, 23-Jun-2018 2:55am CDT
Mist, Clear
Mist, Clear
 Wind from calm
Wind: Calm
Temperature: 63°F , 17°C
Dew Point: 63°F , 17°C
Humidity: 100%
Barometer: 29.81 inHg , 1009.5 hPa
Summary: Mist
Clouds: Clear
Visibility: 2 1/2 miles , 4 km
2018/06/23 07:55 KMLE 230755Z AUTO 00000KT 2 1/2SM BR CLR 17/17 A2981 RMK AO2 T01700165
KOFF - Offutt Afb/Belle, Nebraska, USA
Distance from station: ESE 12mi, 20km
Updated: Sat, 23-Jun-2018 2:56am CDT
Mist, Clear
Mist, Clear
 Wind from calm
Wind: Calm
Temperature: 61°F , 16°C
Dew Point: 61°F , 16°C
Humidity: 100%
Barometer: 29.79 inHg , 1008.8 hPa
Summary: Mist
Clouds: Clear
Visibility: 4 miles , 6 km
2018/06/23 07:56 KOFF 230756Z 00000KT 4SM BR CLR 16/16 A2979 RMK AO2A SLP087 T01590159 $
 
KOMA - Omaha/Eppley, Nebraska, USA
Distance from station: NE 15mi, 24km
Updated: Sat, 23-Jun-2018 2:52am CDT
Partly cloudy
Partly cloudy
 Wind from calm
Wind: Calm
Temperature: 63°F , 17°C
Dew Point: 59°F , 15°C
Humidity: 88%
Barometer: 29.80 inHg , 1009.1 hPa
Clouds: Partly cloudy
Visibility: 10 miles , 16 km
Cloud details: Partly cloudy 25000 ft
2018/06/23 07:52 KOMA 230752Z 00000KT 10SM SCT250 17/15 A2980 RMK AO2 SLP086 T01670150
KBTA - Blair Muni, Nebraska, USA
Distance from station: N 16mi, 25km
Updated: Sat, 23-Jun-2018 2:55am CDT
Clear
Clear
 Wind from calm
Wind: Calm
Temperature: 63°F , 17°C
Dew Point: 61°F , 16°C
Humidity: 94%
Barometer: 29.81 inHg , 1009.5 hPa
Clouds: Clear
Visibility: 7 miles , 11 km
2018/06/23 07:55 KBTA 230755Z AUTO 00000KT 7SM CLR 17/16 A2981 RMK AO2 T01650157
 
KCBF - Council Bluffs, Iowa, USA
Distance from station: ENE 20mi, 32km
Updated: Sat, 23-Jun-2018 2:55am CDT
Clear
Clear
 Wind from calm
Wind: Calm
Temperature: 61°F , 16°C
Barometer: 29.81 inHg , 1009.5 hPa
Clouds: Clear
Visibility: 10 miles , 16 km
2018/06/23 07:55 KCBF 230755Z AUTO 00000KT 10SM CLR 16/ A2981 RMK AO2
KPMV - Plattsmouth Muni, Nebraska, USA
Distance from station: SE 20mi, 32km
Updated: Sat, 23-Jun-2018 2:55am CDT
Mist, Clear
Mist, Clear
 Wind from calm
Wind: Calm
Temperature: 61°F , 16°C
Dew Point: 61°F , 16°C
Humidity: 100%
Barometer: 29.81 inHg , 1009.5 hPa
Summary: Mist
Clouds: Clear
Visibility: 4 miles , 6 km
2018/06/23 07:55 KPMV 230755Z AUTO 00000KT 4SM BR CLR 16/16 A2981 RMK AO2 T01600160
 
KAHQ - Wahoo, Nebraska, USA
Distance from station: W 25mi, 40km
Updated: Sat, 23-Jun-2018 2:55am CDT
Mist, Clear
Mist, Clear
 Wind from calm
Wind: Calm
Temperature: 61°F , 16°C
Dew Point: 61°F , 16°C
Humidity: 100%
Barometer: 29.82 inHg , 1009.8 hPa
Summary: Mist
Clouds: Clear
Visibility: 5 miles , 8 km
2018/06/23 07:55 KAHQ 230755Z AUTO 00000KT 5SM BR CLR 16/16 A2982 RMK AO2 T01600156
KFET - Fremont Muni Arp, Nebraska, USA
Distance from station: NW 27mi, 43km
Updated: Sat, 23-Jun-2018 2:55am CDT
Clear
Clear
 Wind from W
Wind: W 3 mph , 6 km/h
Temperature: 63°F , 17°C
Dew Point: 61°F , 16°C
Humidity: 94%
Barometer: 29.82 inHg , 1009.8 hPa
Clouds: Clear
Visibility: 7 miles , 11 km
2018/06/23 07:55 KFET 230755Z AUTO 28003KT 7SM CLR 17/16 A2982 RMK AO2 T01680163
 
KTQE - Tekamah, Nebraska, USA
Distance from station: N 40mi, 64km
Updated: Sat, 23-Jun-2018 2:54am CDT
Clear
Clear
 Wind from W
Wind: W 3 mph , 6 km/h
Temperature: 61°F , 16°C
Dew Point: 59°F , 15°C
Humidity: 94%
Barometer: 29.81 inHg , 1009.5 hPa
Clouds: Clear
Visibility: 10 miles , 16 km
2018/06/23 07:54 KTQE 230754Z AUTO 28003KT 10SM CLR 16/15 A2981 RMK AO2 SLP084 T01560150
KLNK - Lincoln, Nebraska, USA
Distance from station: SW 41mi, 65km
Updated: Sat, 23-Jun-2018 2:54am CDT
Mist, Clear
Mist, Clear
 Wind from W
Wind: W 3 mph , 6 km/h
Temperature: 63°F , 17°C
Dew Point: 61°F , 16°C
Humidity: 94%
Barometer: 29.83 inHg , 1010.2 hPa
Summary: Mist
Clouds: Clear
Visibility: 6 miles , 10 km
2018/06/23 07:54 KLNK 230754Z AUTO 28003KT 6SM BR CLR 17/16 A2983 RMK AO2 SLP096 T01670156
 
KAFK - Nebraska City, Nebraska, USA
Distance from station: SSE 43mi, 70km
Updated: Sat, 23-Jun-2018 2:55am CDT
Mist, Clear
Mist, Clear
 Wind from W
Wind: W 5 mph , 7 km/h
Temperature: 61°F , 16°C
Dew Point: 61°F , 16°C
Humidity: 100%
Barometer: 29.81 inHg , 1009.5 hPa
Summary: Mist
Clouds: Clear
Visibility: 5 miles , 8 km
2018/06/23 07:55 KAFK 230755Z AUTO 27004KT 5SM BR CLR 16/16 A2981 RMK AO2 T01610161
KRDK - Red Oak, Iowa, USA
Distance from station: ESE 47mi, 75km
Updated: Sat, 23-Jun-2018 2:55am CDT
Overcast
Overcast
 Wind from calm
Wind: Calm
Temperature: 61°F , 16°C
Dew Point: 61°F , 16°C
Humidity: 100%
Barometer: 29.81 inHg , 1009.5 hPa
Clouds: Overcast
Visibility: 10 miles , 16 km
Cloud details: Partly cloudy 3700 ft
Overcast 5000 ft
2018/06/23 07:55 KRDK 230755Z AUTO 00000KT 10SM SCT037 OVC050 16/16 A2981 RMK AO2
 
KSDA - Shenandoah Muni, Iowa, USA
Distance from station: SE 48mi, 77km
Updated: Sat, 23-Jun-2018 2:55am CDT
Fog, Overcast
Fog, Overcast
 Wind from calm
Wind: Calm
Temperature: 59°F , 15°C
Dew Point: 59°F , 15°C
Humidity: 100%
Barometer: 29.81 inHg , 1009.5 hPa
Summary: Fog
Clouds: Overcast
Visibility: less than 1/4 mile , 0.4 km
Cloud details: Overcast 100 ft
2018/06/23 07:55 KSDA 230755Z AUTO 00000KT M1/4SM FG OVC001 15/15 A2981 RMK AO2
KHNR - Harlan Muni, Iowa, USA
Distance from station: NE 49mi, 80km
Updated: Sat, 23-Jun-2018 2:55am CDT

 
2018/06/23 07:55 KHNR 230755Z AUTO RMK AO2 PNO PWINO